createdAt,value
2017-10-06T00:00:03.084Z,0
2017-10-06T00:00:43.657Z,0
2017-10-06T00:01:24.237Z,0
2017-10-06T00:02:04.814Z,0
2017-10-06T00:02:45.395Z,0
2017-10-06T00:03:25.969Z,0
2017-10-06T00:04:06.540Z,0
2017-10-06T00:04:47.116Z,0
2017-10-06T00:05:27.699Z,0
2017-10-06T00:06:08.280Z,0
2017-10-06T00:06:48.853Z,0
2017-10-06T00:07:29.434Z,0
2017-10-06T00:08:24.899Z,0
2017-10-06T00:09:05.477Z,0
2017-10-06T00:09:46.054Z,0
2017-10-06T00:10:26.638Z,0
2017-10-06T00:11:07.212Z,0
2017-10-06T00:11:47.792Z,0
2017-10-06T00:12:28.370Z,0
2017-10-06T00:13:08.951Z,0
2017-10-06T00:13:49.528Z,0
2017-10-06T00:14:30.106Z,0
2017-10-06T00:15:10.692Z,0
2017-10-06T00:15:51.273Z,0
2017-10-06T00:16:31.848Z,0
2017-10-06T00:17:12.446Z,0
2017-10-06T00:17:53.027Z,0
2017-10-06T00:18:33.605Z,0
2017-10-06T00:19:14.175Z,0
2017-10-06T00:19:54.753Z,0
2017-10-06T00:20:35.331Z,0
2017-10-06T00:21:15.912Z,0
2017-10-06T00:21:56.483Z,0
2017-10-06T00:22:37.068Z,0
2017-10-06T00:23:17.648Z,0
2017-10-06T00:23:58.227Z,0
2017-10-06T00:24:38.799Z,0
2017-10-06T00:25:19.384Z,0
2017-10-06T00:25:59.966Z,0
2017-10-06T00:26:40.538Z,0
2017-10-06T00:27:21.108Z,0
2017-10-06T00:28:01.684Z,0
2017-10-06T00:28:42.263Z,0
2017-10-06T00:29:22.834Z,0
2017-10-06T00:30:03.408Z,0
2017-10-06T00:30:43.985Z,0
2017-10-06T00:31:24.566Z,0
2017-10-06T00:32:05.145Z,0
2017-10-06T00:32:45.729Z,0
2017-10-06T00:33:26.306Z,0
2017-10-06T00:34:06.887Z,0
2017-10-06T00:34:47.464Z,0
2017-10-06T00:35:28.046Z,0
2017-10-06T00:36:08.626Z,0
2017-10-06T00:36:49.202Z,0
2017-10-06T00:37:29.775Z,0
2017-10-06T00:38:10.351Z,0
2017-10-06T00:38:50.921Z,0
2017-10-06T00:39:31.501Z,0
2017-10-06T00:40:12.077Z,0
2017-10-06T00:40:52.661Z,0
2017-10-06T00:41:33.235Z,0
2017-10-06T00:42:13.807Z,0
2017-10-06T00:42:54.384Z,0
2017-10-06T00:43:34.957Z,0
2017-10-06T00:44:15.539Z,0
2017-10-06T00:44:56.120Z,0
2017-10-06T00:45:36.700Z,0
2017-10-06T00:46:17.293Z,0
2017-10-06T00:46:57.847Z,0
2017-10-06T00:47:38.422Z,0
2017-10-06T00:48:19.002Z,0
2017-10-06T00:48:59.579Z,0
2017-10-06T00:49:40.153Z,0
2017-10-06T00:50:20.740Z,0
2017-10-06T00:51:01.317Z,0
2017-10-06T00:51:41.903Z,0
2017-10-06T00:52:22.482Z,0
2017-10-06T00:53:03.057Z,0
2017-10-06T00:53:43.627Z,0
2017-10-06T00:54:24.201Z,0
2017-10-06T00:56:37.042Z,0
2017-10-06T00:57:17.619Z,0
2017-10-06T00:57:58.199Z,0
2017-10-06T00:58:38.767Z,0
2017-10-06T00:59:19.344Z,0
2017-10-06T00:59:59.933Z,0
2017-10-06T01:00:40.503Z,0
2017-10-06T01:01:21.092Z,0
2017-10-06T01:02:01.651Z,0
2017-10-06T01:02:42.232Z,0
2017-10-06T01:03:22.816Z,0
2017-10-06T01:04:03.388Z,0
2017-10-06T01:04:43.966Z,0
2017-10-06T01:05:24.545Z,0
2017-10-06T01:06:05.121Z,0
2017-10-06T01:06:45.694Z,0
2017-10-06T01:07:26.276Z,0
2017-10-06T01:08:06.840Z,0
2017-10-06T01:08:47.422Z,0
2017-10-06T01:09:28.000Z,0
2017-10-06T01:10:08.587Z,0
2017-10-06T01:10:49.161Z,0
2017-10-06T01:11:29.731Z,0
2017-10-06T01:12:10.304Z,0
2017-10-06T01:12:50.886Z,0
2017-10-06T01:13:31.466Z,0
2017-10-06T01:14:12.038Z,0
2017-10-06T01:14:52.615Z,0
2017-10-06T01:15:33.197Z,0
2017-10-06T01:16:13.769Z,0
2017-10-06T01:16:54.348Z,0
2017-10-06T01:17:34.976Z,0
2017-10-06T01:18:15.546Z,0
2017-10-06T01:18:56.126Z,0
2017-10-06T01:19:36.704Z,0
2017-10-06T01:20:17.269Z,0
2017-10-06T01:20:57.851Z,0
2017-10-06T01:21:38.431Z,0
2017-10-06T01:22:25.754Z,0
2017-10-06T01:23:06.327Z,0
2017-10-06T01:23:46.908Z,0
2017-10-06T01:24:27.490Z,0
2017-10-06T01:25:08.077Z,0
2017-10-06T01:25:48.651Z,0
2017-10-06T01:26:29.236Z,0
2017-10-06T01:27:09.813Z,0
2017-10-06T01:27:50.380Z,0
2017-10-06T01:28:30.957Z,0
2017-10-06T01:29:11.533Z,0
2017-10-06T01:29:52.111Z,0
2017-10-06T01:30:32.683Z,0
2017-10-06T01:31:13.257Z,0
2017-10-06T01:31:53.838Z,0
2017-10-06T01:32:34.416Z,0
2017-10-06T01:33:14.995Z,0
2017-10-06T01:33:55.572Z,0
2017-10-06T01:34:36.144Z,0
2017-10-06T01:35:16.719Z,0
2017-10-06T01:35:58.152Z,0
2017-10-06T01:36:39.050Z,0
2017-10-06T01:37:19.630Z,0
2017-10-06T01:38:00.210Z,0
2017-10-06T01:38:40.791Z,0
2017-10-06T01:39:21.358Z,0
2017-10-06T01:40:01.930Z,0
2017-10-06T01:40:42.524Z,0
2017-10-06T01:41:23.110Z,0
2017-10-06T01:42:03.684Z,0
2017-10-06T01:42:44.260Z,0
2017-10-06T01:43:24.840Z,0
2017-10-06T01:44:06.439Z,0
2017-10-06T01:44:47.021Z,0
2017-10-06T01:45:27.600Z,0
2017-10-06T01:46:08.177Z,0
2017-10-06T01:46:48.755Z,0
2017-10-06T01:47:29.334Z,0
2017-10-06T01:48:09.916Z,0
2017-10-06T01:48:50.500Z,0
2017-10-06T01:49:31.062Z,0
2017-10-06T01:50:11.640Z,0
2017-10-06T01:50:52.218Z,0
2017-10-06T01:51:32.797Z,0
2017-10-06T01:52:13.376Z,0
2017-10-06T01:52:53.958Z,0
2017-10-06T01:53:34.535Z,0
2017-10-06T01:54:15.123Z,0
2017-10-06T01:54:55.703Z,0
2017-10-06T01:55:36.278Z,0
2017-10-06T01:56:16.864Z,0
2017-10-06T01:56:57.442Z,0
2017-10-06T01:57:38.027Z,0
2017-10-06T01:58:18.608Z,0
2017-10-06T01:58:59.184Z,0
2017-10-06T01:59:39.761Z,0
2017-10-06T02:00:20.364Z,0
2017-10-06T02:01:00.947Z,0
2017-10-06T02:01:41.521Z,0
2017-10-06T02:02:22.100Z,0
2017-10-06T02:03:02.696Z,0
2017-10-06T02:03:43.259Z,0
2017-10-06T02:04:23.837Z,0
2017-10-06T02:05:04.416Z,0
2017-10-06T02:05:44.999Z,0
2017-10-06T02:06:25.581Z,0
2017-10-06T02:07:06.160Z,0
2017-10-06T02:07:46.740Z,0
2017-10-06T02:08:27.319Z,0
2017-10-06T02:09:07.898Z,0
2017-10-06T02:09:48.471Z,0
2017-10-06T02:10:29.059Z,0
2017-10-06T02:11:09.638Z,0
2017-10-06T02:11:50.218Z,0
2017-10-06T02:12:30.797Z,0
2017-10-06T02:13:11.372Z,0
2017-10-06T02:13:51.943Z,0
2017-10-06T02:14:32.518Z,0
2017-10-06T02:15:13.092Z,0
2017-10-06T02:15:53.679Z,0
2017-10-06T02:16:34.257Z,0
2017-10-06T02:17:14.834Z,0
2017-10-06T02:17:55.409Z,0
2017-10-06T02:18:35.991Z,0
2017-10-06T02:19:16.570Z,0
2017-10-06T02:19:57.153Z,0
2017-10-06T02:20:37.736Z,0
2017-10-06T02:21:18.318Z,0
2017-10-06T02:21:58.891Z,0
2017-10-06T02:22:39.472Z,0
2017-10-06T02:23:20.045Z,0
2017-10-06T02:24:00.608Z,0
2017-10-06T02:24:41.188Z,0
2017-10-06T02:25:21.769Z,0
2017-10-06T02:26:02.346Z,0
2017-10-06T02:26:42.922Z,0
2017-10-06T02:27:23.494Z,0
2017-10-06T02:28:04.071Z,0
2017-10-06T02:28:44.651Z,0
2017-10-06T02:29:25.220Z,0
2017-10-06T02:30:05.792Z,0
2017-10-06T02:30:46.371Z,0
2017-10-06T02:31:26.950Z,0
2017-10-06T02:32:07.521Z,0
2017-10-06T02:32:48.100Z,0
2017-10-06T02:33:28.682Z,0
2017-10-06T02:34:09.264Z,0
2017-10-06T02:34:49.849Z,0
2017-10-06T02:35:31.046Z,0
2017-10-06T02:36:11.619Z,0
2017-10-06T02:36:52.189Z,0
2017-10-06T02:37:32.766Z,0
2017-10-06T02:38:13.338Z,0
2017-10-06T02:38:53.940Z,0
2017-10-06T02:39:34.518Z,0
2017-10-06T02:40:15.096Z,0
2017-10-06T02:40:55.669Z,0
2017-10-06T02:41:36.249Z,0
2017-10-06T02:42:16.827Z,0
2017-10-06T02:42:57.409Z,0
2017-10-06T02:43:37.977Z,0
2017-10-06T02:44:18.547Z,0
2017-10-06T02:44:59.132Z,0
2017-10-06T02:45:39.708Z,0
2017-10-06T02:46:20.294Z,0
2017-10-06T02:47:00.874Z,0
2017-10-06T02:47:48.299Z,0
2017-10-06T02:48:28.868Z,0
2017-10-06T02:49:09.438Z,0
2017-10-06T02:49:50.027Z,0
2017-10-06T02:50:30.601Z,0
2017-10-06T02:51:25.683Z,0
2017-10-06T02:52:06.254Z,0
2017-10-06T02:52:46.834Z,0
2017-10-06T02:53:27.413Z,0
2017-10-06T02:54:07.985Z,0
2017-10-06T02:54:48.567Z,0
2017-10-06T02:55:29.148Z,0
2017-10-06T02:56:09.731Z,0
2017-10-06T02:56:50.302Z,0
2017-10-06T02:57:30.882Z,0
2017-10-06T02:58:11.464Z,0
2017-10-06T02:58:52.040Z,0
2017-10-06T02:59:32.633Z,0
2017-10-06T03:00:13.203Z,0
2017-10-06T03:00:53.782Z,0
2017-10-06T03:01:34.354Z,0
2017-10-06T03:02:14.924Z,0
2017-10-06T03:02:55.499Z,0
2017-10-06T03:03:36.074Z,0
2017-10-06T03:04:16.667Z,0
2017-10-06T03:04:57.246Z,0
2017-10-06T03:05:37.813Z,0
2017-10-06T03:06:18.394Z,0
2017-10-06T03:06:58.967Z,0
2017-10-06T03:07:39.547Z,0
2017-10-06T03:08:20.131Z,0
2017-10-06T03:09:00.707Z,0
2017-10-06T03:09:41.284Z,0
2017-10-06T03:10:21.866Z,0
2017-10-06T03:11:02.427Z,0
2017-10-06T03:11:43.007Z,0
2017-10-06T03:12:26.326Z,0
2017-10-06T03:13:06.909Z,0
2017-10-06T03:13:47.481Z,0
2017-10-06T03:14:28.058Z,0
2017-10-06T03:15:08.632Z,0
2017-10-06T03:15:49.207Z,0
2017-10-06T03:16:29.768Z,0
2017-10-06T03:17:10.343Z,0
2017-10-06T03:17:50.914Z,0
2017-10-06T03:18:31.487Z,0
2017-10-06T03:19:12.059Z,0
2017-10-06T03:19:52.636Z,0
2017-10-06T03:20:33.212Z,0
2017-10-06T03:21:13.776Z,0
2017-10-06T03:21:54.439Z,0
2017-10-06T03:22:35.019Z,0
2017-10-06T03:23:15.583Z,0
2017-10-06T03:23:56.172Z,0
2017-10-06T03:24:36.751Z,0
2017-10-06T03:25:17.561Z,0
2017-10-06T03:25:58.241Z,0
2017-10-06T03:26:38.874Z,0
2017-10-06T03:27:19.507Z,0
2017-10-06T03:28:00.165Z,0
2017-10-06T03:28:40.899Z,0
2017-10-06T03:29:21.465Z,0
2017-10-06T03:30:02.033Z,0
2017-10-06T03:30:42.936Z,0
2017-10-06T03:31:23.568Z,0
2017-10-06T03:32:04.338Z,0
2017-10-06T03:32:45.085Z,0
2017-10-06T03:33:25.794Z,0
2017-10-06T03:34:06.401Z,0
2017-10-06T03:34:47.023Z,0
2017-10-06T03:35:27.677Z,0
2017-10-06T03:36:08.442Z,0
2017-10-06T03:36:49.130Z,0
2017-10-06T03:37:29.752Z,0
2017-10-06T03:38:10.515Z,0
2017-10-06T03:38:51.279Z,0
2017-10-06T03:39:31.948Z,0
2017-10-06T03:40:12.666Z,0
2017-10-06T03:40:53.401Z,0
2017-10-06T03:41:34.036Z,0
2017-10-06T03:42:14.713Z,0
2017-10-06T03:42:55.451Z,0
2017-10-06T03:43:36.146Z,0
2017-10-06T03:44:16.906Z,0
2017-10-06T03:44:57.637Z,0
2017-10-06T03:45:38.390Z,0
2017-10-06T03:46:19.133Z,0
2017-10-06T03:47:00.447Z,0
2017-10-06T03:47:41.032Z,0
2017-10-06T03:48:21.610Z,0
2017-10-06T03:49:02.186Z,0
2017-10-06T03:49:45.328Z,0
2017-10-06T03:50:25.912Z,0
2017-10-06T03:51:07.309Z,0
2017-10-06T03:51:47.882Z,0
2017-10-06T03:52:28.463Z,0
2017-10-06T03:53:09.049Z,0
2017-10-06T03:53:49.619Z,0
2017-10-06T03:54:30.191Z,0
2017-10-06T03:55:10.761Z,0
2017-10-06T03:55:51.341Z,0
2017-10-06T03:56:31.925Z,0
2017-10-06T03:57:12.503Z,0
2017-10-06T03:57:53.068Z,0
2017-10-06T03:58:33.640Z,0
2017-10-06T03:59:14.217Z,0
2017-10-06T03:59:54.789Z,0
2017-10-06T04:00:35.358Z,0
2017-10-06T04:01:15.941Z,0
2017-10-06T04:01:56.524Z,0
2017-10-06T04:02:37.083Z,0
2017-10-06T04:03:17.670Z,0
2017-10-06T04:03:58.250Z,0
2017-10-06T04:04:38.810Z,0
2017-10-06T04:05:19.403Z,0
2017-10-06T04:05:59.985Z,0
2017-10-06T04:06:40.551Z,0
2017-10-06T04:09:08.666Z,0
2017-10-06T04:09:49.251Z,0
2017-10-06T04:10:29.835Z,0
2017-10-06T04:11:10.399Z,0
2017-10-06T04:11:50.988Z,0
2017-10-06T04:12:31.554Z,0
2017-10-06T04:13:12.119Z,0
2017-10-06T04:13:52.693Z,0
2017-10-06T04:14:33.277Z,0
2017-10-06T04:15:13.869Z,0
2017-10-06T04:15:54.435Z,0
2017-10-06T04:16:35.016Z,0
2017-10-06T04:17:15.595Z,0
2017-10-06T04:17:56.168Z,0
2017-10-06T04:18:36.749Z,0
2017-10-06T04:19:17.321Z,0
2017-10-06T04:19:57.898Z,0
2017-10-06T04:20:38.485Z,0
2017-10-06T04:21:19.057Z,0
2017-10-06T04:21:59.654Z,0
2017-10-06T04:22:40.232Z,0
2017-10-06T04:23:20.803Z,0
2017-10-06T04:24:01.380Z,0
2017-10-06T04:24:41.960Z,0
2017-10-06T04:25:22.540Z,0
2017-10-06T04:26:03.114Z,0
2017-10-06T04:26:43.691Z,0
2017-10-06T04:27:24.267Z,0
2017-10-06T04:28:04.844Z,0
2017-10-06T04:28:45.423Z,0
2017-10-06T04:29:26.001Z,0
2017-10-06T04:30:06.576Z,0
2017-10-06T04:30:47.290Z,0
2017-10-06T04:31:30.657Z,0
2017-10-06T04:32:11.237Z,0
2017-10-06T04:32:51.813Z,0
2017-10-06T04:33:32.396Z,0
2017-10-06T04:34:12.976Z,0
2017-10-06T04:34:53.551Z,0
2017-10-06T04:35:34.146Z,0
2017-10-06T04:36:14.726Z,0
2017-10-06T04:36:55.306Z,0
2017-10-06T04:37:50.410Z,0
2017-10-06T04:38:30.988Z,0
2017-10-06T04:39:11.570Z,0
2017-10-06T04:39:52.154Z,0
2017-10-06T04:40:32.719Z,0
2017-10-06T04:41:13.279Z,0
2017-10-06T04:41:53.862Z,0
2017-10-06T04:42:34.439Z,0
2017-10-06T04:43:15.020Z,0
2017-10-06T04:43:55.604Z,0
2017-10-06T04:44:36.190Z,0
2017-10-06T04:45:16.765Z,0
2017-10-06T04:45:57.345Z,0
2017-10-06T04:46:37.920Z,0
2017-10-06T04:47:18.493Z,0
2017-10-06T04:47:59.060Z,0
2017-10-06T04:48:39.623Z,0
2017-10-06T04:49:20.206Z,0
2017-10-06T04:50:00.802Z,0
2017-10-06T04:50:41.359Z,0
2017-10-06T04:51:21.924Z,0
2017-10-06T04:53:39.864Z,0
2017-10-06T04:54:20.441Z,0
2017-10-06T04:55:01.007Z,0
2017-10-06T04:55:41.584Z,0
2017-10-06T04:56:22.163Z,0
2017-10-06T04:57:02.741Z,0
2017-10-06T04:57:43.322Z,0
2017-10-06T04:58:24.979Z,0
2017-10-06T04:59:05.540Z,0
2017-10-06T04:59:46.109Z,0
2017-10-06T05:00:26.674Z,0
2017-10-06T05:01:07.245Z,0
2017-10-06T05:01:47.820Z,0
2017-10-06T05:02:28.395Z,0
2017-10-06T05:03:08.986Z,0
2017-10-06T05:03:49.582Z,0
2017-10-06T05:04:30.138Z,0
2017-10-06T05:05:10.715Z,0
2017-10-06T05:05:51.289Z,0
2017-10-06T05:06:31.863Z,0
2017-10-06T05:07:12.446Z,0
2017-10-06T05:07:53.012Z,0
2017-10-06T05:08:33.583Z,0
2017-10-06T05:09:14.159Z,0
2017-10-06T05:09:54.738Z,0
2017-10-06T05:10:35.322Z,5
2017-10-06T05:11:15.904Z,5
2017-10-06T05:11:56.470Z,5
2017-10-06T05:12:37.052Z,5
2017-10-06T05:13:17.621Z,5
2017-10-06T05:13:58.194Z,5
2017-10-06T05:14:38.758Z,5
2017-10-06T05:15:19.339Z,10
2017-10-06T05:15:59.906Z,10
2017-10-06T05:16:40.489Z,10
2017-10-06T05:17:21.080Z,10
2017-10-06T05:18:01.645Z,10
2017-10-06T05:18:42.223Z,15
2017-10-06T05:19:22.799Z,15
2017-10-06T05:20:03.365Z,15
2017-10-06T05:20:43.944Z,15
2017-10-06T05:21:24.529Z,20
2017-10-06T05:22:05.096Z,20
2017-10-06T05:22:45.669Z,20
2017-10-06T05:23:26.246Z,20
2017-10-06T05:24:06.834Z,25
2017-10-06T05:24:47.415Z,25
2017-10-06T05:25:27.981Z,25
2017-10-06T05:26:23.352Z,30
2017-10-06T05:27:03.923Z,30
2017-10-06T05:27:44.487Z,30
2017-10-06T05:28:25.061Z,35
2017-10-06T05:29:05.637Z,35
2017-10-06T05:29:46.209Z,35
2017-10-06T05:30:26.775Z,40
2017-10-06T05:31:07.344Z,40
2017-10-06T05:31:47.912Z,45
2017-10-06T05:32:28.484Z,45
2017-10-06T05:33:09.062Z,45
2017-10-06T05:33:49.632Z,50
2017-10-06T05:34:30.211Z,50
2017-10-06T05:35:10.781Z,55
2017-10-06T05:35:51.353Z,55
2017-10-06T05:36:31.929Z,60
2017-10-06T05:37:12.496Z,60
2017-10-06T05:39:53.798Z,75
2017-10-06T05:40:34.368Z,75
2017-10-06T05:41:14.940Z,80
2017-10-06T05:41:55.512Z,80
2017-10-06T05:42:36.088Z,85
2017-10-06T05:43:16.668Z,85
2017-10-06T05:43:57.238Z,90
2017-10-06T05:44:37.812Z,90
2017-10-06T05:45:18.384Z,95
2017-10-06T05:45:58.958Z,95
2017-10-06T05:46:39.531Z,95
2017-10-06T05:49:17.827Z,130
2017-10-06T05:49:58.386Z,135
2017-10-06T05:50:38.963Z,145
2017-10-06T05:51:19.521Z,150
2017-10-06T05:53:32.316Z,150
2017-10-06T05:54:12.893Z,145
2017-10-06T05:54:53.462Z,145
2017-10-06T05:55:34.030Z,145
2017-10-06T05:56:14.612Z,145
2017-10-06T05:56:55.190Z,145
2017-10-06T05:57:35.765Z,145
2017-10-06T05:58:16.339Z,145
2017-10-06T05:58:56.916Z,145
2017-10-06T05:59:37.491Z,145
2017-10-06T06:00:18.059Z,145
2017-10-06T06:00:58.631Z,145
2017-10-06T06:01:39.201Z,150
2017-10-06T06:02:19.774Z,150
2017-10-06T06:03:15.261Z,150
2017-10-06T06:03:55.839Z,150
2017-10-06T06:04:36.420Z,155
2017-10-06T06:05:16.999Z,160
2017-10-06T06:05:57.570Z,165
2017-10-06T06:06:38.147Z,175
2017-10-06T06:07:18.722Z,185
2017-10-06T06:07:59.294Z,200
2017-10-06T06:08:39.864Z,205
2017-10-06T06:09:20.458Z,205
2017-10-06T06:10:01.027Z,210
2017-10-06T06:10:41.602Z,215
2017-10-06T06:11:22.172Z,210
2017-10-06T06:12:02.748Z,210
2017-10-06T06:12:43.323Z,210
2017-10-06T06:13:23.889Z,215
2017-10-06T06:14:04.469Z,215
2017-10-06T06:14:45.036Z,220
2017-10-06T06:15:25.608Z,220
2017-10-06T06:16:06.194Z,220
2017-10-06T06:16:46.790Z,220
2017-10-06T06:17:27.346Z,225
2017-10-06T06:18:07.921Z,230
2017-10-06T06:18:48.493Z,235
2017-10-06T06:19:29.064Z,240
2017-10-06T06:20:09.647Z,245
2017-10-06T06:20:50.219Z,250
2017-10-06T06:21:30.799Z,250
2017-10-06T06:22:11.369Z,255
2017-10-06T06:22:51.958Z,260
2017-10-06T06:23:32.547Z,265
2017-10-06T06:25:50.503Z,265
2017-10-06T06:26:31.083Z,265
2017-10-06T06:27:11.649Z,265
2017-10-06T06:27:52.221Z,265
2017-10-06T06:28:32.792Z,270
2017-10-06T06:29:13.365Z,280
2017-10-06T06:29:53.936Z,285
2017-10-06T06:30:34.508Z,290
2017-10-06T06:31:15.076Z,290
2017-10-06T06:31:55.650Z,290
2017-10-06T06:32:36.219Z,285
2017-10-06T06:33:16.788Z,285
2017-10-06T06:33:57.363Z,285
2017-10-06T06:34:37.937Z,290
2017-10-06T06:35:18.506Z,295
2017-10-06T06:35:59.085Z,305
2017-10-06T06:36:39.663Z,310
2017-10-06T06:37:20.235Z,315
2017-10-06T06:38:00.800Z,315
2017-10-06T06:38:41.373Z,310
2017-10-06T06:39:21.944Z,305
2017-10-06T06:40:02.505Z,305
2017-10-06T06:40:43.081Z,310
2017-10-06T06:41:23.663Z,305
2017-10-06T06:42:04.247Z,315
2017-10-06T06:42:44.830Z,320
2017-10-06T06:43:25.407Z,315
2017-10-06T06:44:05.986Z,310
2017-10-06T06:44:46.570Z,310
2017-10-06T06:45:27.147Z,310
2017-10-06T06:46:07.746Z,325
2017-10-06T06:46:48.318Z,290
2017-10-06T06:47:28.914Z,270
2017-10-06T06:48:09.492Z,260
2017-10-06T06:49:04.901Z,255
2017-10-06T06:49:45.472Z,260
2017-10-06T06:50:26.042Z,265
2017-10-06T06:51:06.626Z,280
2017-10-06T06:51:47.205Z,295
2017-10-06T06:52:27.794Z,300
2017-10-06T06:53:08.361Z,305
2017-10-06T06:53:48.955Z,310
2017-10-06T06:54:29.531Z,320
2017-10-06T06:55:10.097Z,320
2017-10-06T06:55:50.673Z,325
2017-10-06T06:56:31.244Z,320
2017-10-06T06:57:11.821Z,325
2017-10-06T06:57:52.400Z,320
2017-10-06T06:58:32.975Z,315
2017-10-06T06:59:13.547Z,310
2017-10-06T06:59:54.122Z,295
2017-10-06T07:00:34.695Z,280
2017-10-06T07:01:15.276Z,265
2017-10-06T07:01:55.858Z,260
2017-10-06T07:02:36.420Z,255
2017-10-06T07:03:16.993Z,260
2017-10-06T07:03:57.561Z,270
2017-10-06T07:04:38.153Z,280
2017-10-06T07:05:18.728Z,290
2017-10-06T07:05:59.288Z,300
2017-10-06T07:06:39.871Z,320
2017-10-06T07:07:20.443Z,335
2017-10-06T07:08:01.028Z,350
2017-10-06T07:08:41.632Z,365
2017-10-06T07:09:22.222Z,380
2017-10-06T07:10:02.809Z,395
2017-10-06T07:10:43.382Z,400
2017-10-06T07:11:23.959Z,420
2017-10-06T07:12:04.552Z,425
2017-10-06T07:12:45.120Z,430
2017-10-06T07:13:25.703Z,435
2017-10-06T07:14:06.263Z,425
2017-10-06T07:14:46.841Z,415
2017-10-06T07:15:27.402Z,410
2017-10-06T07:16:07.980Z,415
2017-10-06T07:16:48.560Z,420
2017-10-06T07:17:29.139Z,430
2017-10-06T07:18:09.717Z,450
2017-10-06T07:18:50.290Z,480
2017-10-06T07:19:30.869Z,495
2017-10-06T07:20:11.447Z,505
2017-10-06T07:20:52.031Z,505
2017-10-06T07:21:32.607Z,505
2017-10-06T07:22:13.197Z,520
2017-10-06T07:22:53.770Z,530
2017-10-06T07:23:34.354Z,530
2017-10-06T07:24:14.935Z,530
2017-10-06T07:24:55.510Z,520
2017-10-06T07:25:36.080Z,505
2017-10-06T07:26:16.653Z,485
2017-10-06T07:26:57.228Z,470
2017-10-06T07:27:37.811Z,445
2017-10-06T07:28:18.388Z,435
2017-10-06T07:28:58.956Z,425
2017-10-06T07:31:16.915Z,400
2017-10-06T07:31:57.487Z,405
2017-10-06T07:32:38.062Z,415
2017-10-06T07:33:18.633Z,430
2017-10-06T07:33:59.205Z,455
2017-10-06T07:34:39.764Z,485
2017-10-06T07:35:20.345Z,515
2017-10-06T07:36:15.927Z,540
2017-10-06T07:36:56.524Z,560
2017-10-06T07:37:37.106Z,575
2017-10-06T07:38:17.678Z,580
2017-10-06T07:38:58.250Z,570
2017-10-06T07:39:38.832Z,570
2017-10-06T07:40:19.403Z,570
2017-10-06T07:40:59.960Z,570
2017-10-06T07:43:17.910Z,575
2017-10-06T07:43:58.479Z,575
2017-10-06T07:44:39.059Z,580
2017-10-06T07:45:19.636Z,590
2017-10-06T07:46:00.216Z,610
2017-10-06T07:46:40.809Z,620
2017-10-06T07:47:21.411Z,610
2017-10-06T07:48:01.992Z,605
2017-10-06T07:48:42.566Z,600
2017-10-06T07:49:23.130Z,600
2017-10-06T07:50:03.710Z,600
2017-10-06T07:50:44.276Z,605
2017-10-06T07:51:24.856Z,605
2017-10-06T07:52:05.435Z,625
2017-10-06T07:52:46.013Z,650
2017-10-06T07:53:26.582Z,680
2017-10-06T07:54:07.159Z,690
2017-10-06T07:54:47.734Z,700
2017-10-06T07:55:28.312Z,715
2017-10-06T07:56:23.665Z,730
2017-10-06T07:57:04.245Z,725
2017-10-06T07:57:44.813Z,735
2017-10-06T07:58:25.375Z,705
2017-10-06T07:59:05.954Z,655
2017-10-06T07:59:46.518Z,655
2017-10-06T08:00:27.101Z,680
2017-10-06T08:01:07.674Z,720
2017-10-06T08:01:48.265Z,725
2017-10-06T08:02:28.835Z,750
2017-10-06T08:03:09.414Z,765
2017-10-06T08:03:49.981Z,775
2017-10-06T08:04:30.556Z,805
2017-10-06T08:05:11.138Z,855
2017-10-06T08:05:51.710Z,1460
2017-10-06T08:06:32.288Z,1585
2017-10-06T08:07:12.875Z,2075
2017-10-06T08:07:53.450Z,2150
2017-10-06T08:08:34.031Z,2375
2017-10-06T08:09:14.614Z,2165
2017-10-06T08:09:55.183Z,2220
2017-10-06T08:10:35.761Z,1730
2017-10-06T08:11:16.329Z,955
2017-10-06T08:11:56.909Z,995
2017-10-06T08:12:37.485Z,1045
2017-10-06T08:13:18.064Z,1075
2017-10-06T08:13:58.641Z,1880
2017-10-06T08:14:39.219Z,1370
2017-10-06T08:15:19.797Z,1970
2017-10-06T08:16:00.370Z,1220
2017-10-06T08:16:40.955Z,1120
2017-10-06T08:17:21.538Z,1105
2017-10-06T08:18:02.133Z,1075
2017-10-06T08:18:42.719Z,1045
2017-10-06T08:19:23.295Z,1025
2017-10-06T08:20:03.865Z,980
2017-10-06T08:20:44.436Z,960
2017-10-06T08:21:25.017Z,970
2017-10-06T08:22:05.599Z,995
2017-10-06T08:22:46.180Z,1015
2017-10-06T08:23:26.760Z,1015
2017-10-06T08:24:07.346Z,1015
2017-10-06T08:24:47.909Z,1030
2017-10-06T08:25:28.479Z,1030
2017-10-06T08:26:09.129Z,1050
2017-10-06T08:26:49.702Z,1060
2017-10-06T08:27:30.272Z,1065
2017-10-06T08:28:10.843Z,1090
2017-10-06T08:28:51.418Z,1550
2017-10-06T08:29:32.004Z,1250
2017-10-06T08:30:12.573Z,1920
2017-10-06T08:30:53.152Z,1220
2017-10-06T08:31:33.725Z,1145
2017-10-06T08:32:14.311Z,1055
2017-10-06T08:32:54.886Z,1045
2017-10-06T08:33:35.454Z,1295
2017-10-06T08:34:16.028Z,1150
2017-10-06T08:34:56.614Z,1205
2017-10-06T08:35:37.187Z,2230
2017-10-06T08:36:17.775Z,2225
2017-10-06T08:36:58.349Z,2240
2017-10-06T08:37:38.925Z,2580
2017-10-06T08:38:19.505Z,2335
2017-10-06T08:39:00.077Z,2525
2017-10-06T08:39:40.673Z,2320
2017-10-06T08:40:21.246Z,2255
2017-10-06T08:41:02.686Z,2135
2017-10-06T08:41:43.267Z,3025
2017-10-06T08:42:23.846Z,2545
2017-10-06T08:44:57.066Z,2865
2017-10-06T08:45:37.650Z,2990
2017-10-06T08:46:18.242Z,2650
2017-10-06T08:46:58.831Z,3015
2017-10-06T08:47:39.396Z,3365
2017-10-06T08:48:19.965Z,3160
2017-10-06T08:49:00.543Z,2890
2017-10-06T08:49:41.986Z,2915
2017-10-06T08:50:23.059Z,950
2017-10-06T08:51:03.651Z,3255
2017-10-06T08:51:44.239Z,2785
2017-10-06T08:52:24.817Z,3070
2017-10-06T08:53:05.406Z,1685
2017-10-06T08:53:45.991Z,2910
2017-10-06T08:54:26.574Z,2495
2017-10-06T08:55:07.160Z,2345
2017-10-06T08:55:47.750Z,1040
2017-10-06T08:58:20.967Z,2925
2017-10-06T08:59:01.551Z,2950
2017-10-06T08:59:42.140Z,2905
2017-10-06T09:00:22.729Z,1415
2017-10-06T09:01:03.316Z,1565
2017-10-06T09:01:58.618Z,3050
2017-10-06T09:02:39.205Z,2490
2017-10-06T09:03:19.788Z,2655
2017-10-06T09:04:00.371Z,2770
2017-10-06T09:04:40.952Z,2965
2017-10-06T09:05:21.527Z,2870
2017-10-06T09:06:02.115Z,2770
2017-10-06T09:06:42.710Z,2915
2017-10-06T09:07:23.281Z,3035
2017-10-06T09:08:03.862Z,3395
2017-10-06T09:08:44.466Z,3460
2017-10-06T09:09:25.053Z,3170
2017-10-06T09:10:05.634Z,3205
2017-10-06T09:10:46.214Z,3455
2017-10-06T09:11:26.796Z,3520
2017-10-06T09:14:14.916Z,1070
2017-10-06T09:14:55.496Z,1120
2017-10-06T09:15:36.084Z,855
2017-10-06T09:16:16.677Z,985
2017-10-06T09:16:57.246Z,1165
2017-10-06T09:17:37.827Z,1495
2017-10-06T09:18:18.422Z,3280
2017-10-06T09:18:58.996Z,2910
2017-10-06T09:19:39.587Z,1955
2017-10-06T09:20:20.173Z,690
2017-10-06T09:21:00.744Z,600
2017-10-06T09:21:41.318Z,680
2017-10-06T09:22:21.897Z,910
2017-10-06T09:23:02.477Z,1085
2017-10-06T09:23:43.050Z,1015
2017-10-06T09:24:23.637Z,805
2017-10-06T09:25:04.217Z,750
2017-10-06T09:25:44.797Z,655
2017-10-06T09:26:25.378Z,1875
2017-10-06T09:27:05.955Z,2575
2017-10-06T09:27:46.542Z,2165
2017-10-06T09:28:27.128Z,3315
2017-10-06T09:29:07.708Z,895
2017-10-06T09:29:48.290Z,1375
2017-10-06T09:30:28.873Z,1390
2017-10-06T09:31:09.483Z,1115
2017-10-06T09:31:50.065Z,2910
2017-10-06T09:32:30.644Z,1035
2017-10-06T09:33:11.233Z,675
2017-10-06T09:33:51.810Z,795
2017-10-06T09:34:32.389Z,1270
2017-10-06T09:35:12.974Z,940
2017-10-06T09:35:53.549Z,820
2017-10-06T09:36:34.140Z,855
2017-10-06T09:37:14.728Z,715
2017-10-06T09:37:55.308Z,680
2017-10-06T09:38:35.885Z,605
2017-10-06T09:39:16.460Z,550
2017-10-06T09:39:57.076Z,570
2017-10-06T09:40:37.626Z,615
2017-10-06T09:41:18.213Z,665
2017-10-06T09:41:58.795Z,695
2017-10-06T09:42:39.385Z,670
2017-10-06T09:43:35.770Z,590
2017-10-06T09:44:16.356Z,670
2017-10-06T09:44:56.921Z,810
2017-10-06T09:45:37.513Z,1000
2017-10-06T09:46:18.097Z,965
2017-10-06T09:46:58.670Z,3135
2017-10-06T09:47:39.263Z,3695
2017-10-06T09:48:19.828Z,2495
2017-10-06T09:49:00.405Z,2675
2017-10-06T09:49:40.996Z,2745
2017-10-06T09:50:21.588Z,2915
2017-10-06T09:51:02.167Z,2915
2017-10-06T09:51:42.740Z,3355
2017-10-06T09:52:23.309Z,990
2017-10-06T09:53:03.886Z,4210
2017-10-06T09:53:44.468Z,5110
2017-10-06T09:54:25.036Z,5295
2017-10-06T09:55:05.604Z,5425
2017-10-06T09:55:46.183Z,5110
2017-10-06T09:56:26.769Z,1005
2017-10-06T09:57:07.342Z,1945
2017-10-06T09:57:47.921Z,2380
2017-10-06T09:58:28.496Z,2970
2017-10-06T09:59:09.080Z,845
2017-10-06T10:01:42.290Z,1105
2017-10-06T10:02:22.866Z,1110
2017-10-06T10:03:03.444Z,4960
2017-10-06T10:03:44.023Z,5055